Time;durP1;ratioP1;P1;durP2;ratioP2;P2;SDS_P1;SDS_P2;PMS_P1;PMS_P2;Temp;Humidity;BMP_temperature;BMP_pressure;BME280_temperature;BME280_humidity;BME280_pressure;Samples;Min_cycle;Max_cycle;Signal;HPM_P1;HPM_P2
2021/06/15 00:01:33;;;;;;;9.43;3.15;;;;;;;;;;5072701;28;20086;-68
2021/06/15 00:03:59;;;;;;;7.47;3.05;;;;;;;;;;5076490;28;20024;-68
2021/06/15 00:06:25;;;;;;;6.63;2.88;;;;;;;;;;5076490;28;20112;-69
2021/06/15 00:08:51;;;;;;;7.32;3.35;;;;;;;;;;5076483;28;20047;-69
2021/06/15 00:11:17;;;;;;;9.30;3.35;;;;;;;;;;5076309;28;20469;-71
2021/06/15 00:13:43;;;;;;;6.55;3.03;;;;;;;;;;5076328;28;20469;-67
2021/06/15 00:16:10;;;;;;;6.75;3.22;;;;;;;;;;5076360;28;20047;-68
2021/06/15 00:18:36;;;;;;;8.68;3.65;;;;;;;;;;5074713;28;20087;-68
2021/06/15 00:21:02;;;;;;;8.50;3.10;;;;;;;;;;5075034;28;20024;-68
2021/06/15 00:23:28;;;;;;;9.63;2.80;;;;;;;;;;5076195;28;20025;-69
2021/06/15 00:25:54;;;;;;;6.07;2.85;;;;;;;;;;5076002;28;20031;-71
2021/06/15 00:28:20;;;;;;;8.18;3.35;;;;;;;;;;5076041;28;20028;-68
2021/06/15 00:30:47;;;;;;;5.20;3.05;;;;;;;;;;5075758;28;20031;-71
2021/06/15 00:33:13;;;;;;;5.53;3.00;;;;;;;;;;5076015;28;20031;-71
2021/06/15 00:35:39;;;;;;;8.93;3.20;;;;;;;;;;5075832;28;20020;-71
2021/06/15 00:38:05;;;;;;;8.77;2.97;;;;;;;;;;5075758;28;20037;-68
2021/06/15 00:40:31;;;;;;;5.55;3.00;;;;;;;;;;5075891;28;20107;-68
2021/06/15 00:42:58;;;;;;;6.65;3.13;;;;;;;;;;5075820;28;20024;-69
2021/06/15 00:45:28;;;;;;;7.20;3.20;;;;;;;;;;5076132;28;20024;-67
2021/06/15 00:47:54;;;;;;;8.30;2.70;;;;;;;;;;5075848;28;20534;-68
2021/06/15 00:50:21;;;;;;;6.00;2.83;;;;;;;;;;5075512;28;20033;-71
2021/06/15 00:52:47;;;;;;;7.72;2.70;;;;;;;;;;5075741;28;20024;-68
2021/06/15 00:55:13;;;;;;;5.35;2.85;;;;;;;;;;5075107;28;20076;-68
2021/06/15 00:57:39;;;;;;;8.25;2.58;;;;;;;;;;5073745;28;20028;-68
2021/06/15 01:00:06;;;;;;;6.63;2.65;;;;;;;;;;5070657;28;20408;-69
2021/06/15 01:02:33;;;;;;;10.02;3.10;;;;;;;;;;5071021;28;20056;-68
2021/06/15 01:05:01;;;;;;;9.05;3.15;;;;;;;;;;5073857;28;20482;-70
2021/06/15 01:07:28;;;;;;;5.38;2.70;;;;;;;;;;5073381;28;20025;-67
2021/06/15 01:09:54;;;;;;;5.45;3.00;;;;;;;;;;5073877;28;20044;-68
2021/06/15 01:12:35;;;;;;;7.10;2.70;;;;;;;;;;5073707;28;20362;-68
2021/06/15 01:15:05;;;;;;;5.38;2.78;;;;;;;;;;5072839;28;20021;-71
2021/06/15 01:17:31;;;;;;;5.82;2.92;;;;;;;;;;5074825;28;20060;-68
2021/06/15 01:20:10;;;;;;;5.72;2.83;;;;;;;;;;5075232;28;20044;-71
2021/06/15 01:22:46;;;;;;;6.07;2.60;;;;;;;;;;5074984;28;20426;-71
2021/06/15 01:25:26;;;;;;;5.35;2.88;;;;;;;;;;5074914;28;20032;-71
2021/06/15 01:27:58;;;;;;;5.28;3.03;;;;;;;;;;5074754;28;20021;-68
2021/06/15 01:30:27;;;;;;;4.05;2.50;;;;;;;;;;5074760;28;20122;-68
2021/06/15 01:32:55;;;;;;;8.30;3.13;;;;;;;;;;5074778;28;20027;-68
2021/06/15 01:35:22;;;;;;;7.53;3.38;;;;;;;;;;5074553;28;20032;-71
2021/06/15 01:38:08;;;;;;;5.63;2.80;;;;;;;;;;5074430;28;20020;-71
2021/06/15 01:40:54;;;;;;;6.32;2.83;;;;;;;;;;5073874;28;20044;-68
2021/06/15 01:43:34;;;;;;;7.03;2.70;;;;;;;;;;5073165;28;20028;-72
2021/06/15 01:46:02;;;;;;;7.45;3.05;;;;;;;;;;5074378;28;20037;-68
2021/06/15 01:48:34;;;;;;;5.93;3.00;;;;;;;;;;5074375;28;20123;-68
2021/06/15 01:51:00;;;;;;;;;;;;;;;;;;5074498;28;20024;-68
2021/06/15 01:53:26;;;;;;;7.93;2.90;;;;;;;;;;5074285;28;19904;-68
2021/06/15 01:55:53;;;;;;;7.47;3.15;;;;;;;;;;5074203;28;20174;-72
2021/06/15 01:58:22;;;;;;;5.70;2.80;;;;;;;;;;5073831;28;20024;-68
2021/06/15 02:00:49;;;;;;;5.13;2.72;;;;;;;;;;5074115;28;20024;-68
2021/06/15 02:03:15;;;;;;;5.97;2.58;;;;;;;;;;5074073;28;20034;-67
2021/06/15 02:06:01;;;;;;;8.10;2.67;;;;;;;;;;5073051;28;20389;-68
2021/06/15 02:08:32;;;;;;;6.28;2.80;;;;;;;;;;5074113;28;20021;-70
2021/06/15 02:10:59;;;;;;;4.97;2.80;;;;;;;;;;5074209;28;20090;-70
2021/06/15 02:13:27;;;;;;;6.05;2.90;;;;;;;;;;5073951;28;20266;-68
2021/06/15 02:15:53;;;;;;;7.15;2.30;;;;;;;;;;5073966;28;20020;-69
2021/06/15 02:18:22;;;;;;;9.93;3.05;;;;;;;;;;5073510;28;20043;-68
2021/06/15 02:20:49;;;;;;;5.35;2.80;;;;;;;;;;5072037;28;20024;-68
2021/06/15 02:23:18;;;;;;;10.35;2.70;;;;;;;;;;5072109;28;20439;-68
2021/06/15 02:25:45;;;;;;;9.63;2.70;;;;;;;;;;5071498;28;20012;-68
2021/06/15 02:28:12;;;;;;;7.57;2.47;;;;;;;;;;5071830;28;20028;-71
2021/06/15 02:30:38;;;;;;;8.63;3.00;;;;;;;;;;5072072;28;20100;-69
2021/06/15 02:33:13;;;;;;;6.05;2.88;;;;;;;;;;5073579;28;20095;-68
2021/06/15 02:35:42;;;;;;;6.85;2.30;;;;;;;;;;5073525;28;20491;-68
2021/06/15 02:38:09;;;;;;;7.63;2.55;;;;;;;;;;5073606;28;20024;-68
2021/06/15 02:40:36;;;;;;;5.50;2.55;;;;;;;;;;5073629;28;20024;-72
2021/06/15 02:43:03;;;;;;;7.50;3.08;;;;;;;;;;5073265;28;20103;-71
2021/06/15 02:45:32;;;;;;;7.95;2.40;;;;;;;;;;5073530;28;20025;-68
2021/06/15 02:48:01;;;;;;;7.20;2.58;;;;;;;;;;5073538;28;20427;-68
2021/06/15 02:50:28;;;;;;;8.45;2.90;;;;;;;;;;5073360;28;20442;-68
2021/06/15 02:53:08;;;;;;;5.70;2.67;;;;;;;;;;5073409;28;20516;-68
2021/06/15 02:55:39;;;;;;;5.50;2.58;;;;;;;;;;5073059;28;20059;-68
2021/06/15 02:58:05;;;;;;;7.30;2.67;;;;;;;;;;5071684;28;20055;-71
2021/06/15 03:00:31;;;;;;;4.70;2.47;;;;;;;;;;5071350;28;20024;-69
2021/06/15 03:02:58;;;;;;;5.18;2.67;;;;;;;;;;5071984;28;20024;-71
2021/06/15 03:05:24;;;;;;;7.63;2.63;;;;;;;;;;5073223;28;20052;-68
2021/06/15 03:07:51;;;;;;;7.57;2.85;;;;;;;;;;5072908;28;20024;-68
2021/06/15 03:10:19;;;;;;;13.02;3.00;;;;;;;;;;5072967;28;20024;-68
2021/06/15 03:12:49;;;;;;;5.60;2.38;;;;;;;;;;5073385;28;20028;-68
2021/06/15 03:15:17;;;;;;;6.32;2.78;;;;;;;;;;5073339;28;20048;-71
2021/06/15 03:17:48;;;;;;;8.07;3.17;;;;;;;;;;5073126;28;20028;-68
2021/06/15 03:20:14;;;;;;;5.07;2.95;;;;;;;;;;5072716;28;20028;-68
2021/06/15 03:22:52;;;;;;;7.68;3.05;;;;;;;;;;5072956;28;20488;-68
2021/06/15 03:25:21;;;;;;;5.95;3.20;;;;;;;;;;5073096;28;20493;-68
2021/06/15 03:27:52;;;;;;;6.65;3.22;;;;;;;;;;5072894;28;20025;-68
2021/06/15 03:30:19;;;;;;;6.28;3.25;;;;;;;;;;5071909;28;20044;-68
2021/06/15 03:32:55;;;;;;;6.65;2.83;;;;;;;;;;5071176;28;20027;-71
2021/06/15 03:35:24;;;;;;;4.57;2.78;;;;;;;;;;5072852;28;20052;-72
2021/06/15 03:37:53;;;;;;;3.55;2.63;;;;;;;;;;5074926;28;20031;-68
2021/06/15 03:40:24;;;;;;;11.73;2.80;;;;;;;;;;5077069;28;20036;-71
2021/06/15 03:42:51;;;;;;;6.95;3.30;;;;;;;;;;5077104;28;20492;-68
2021/06/15 03:45:18;;;;;;;11.85;3.55;;;;;;;;;;5076883;28;20370;-70
2021/06/15 03:47:46;;;;;;;8.20;3.00;;;;;;;;;;5076778;28;20029;-70
2021/06/15 03:50:13;;;;;;;10.35;3.13;;;;;;;;;;5076960;28;20036;-69
2021/06/15 03:52:40;;;;;;;9.13;2.83;;;;;;;;;;5077021;28;20024;-68
2021/06/15 03:55:07;;;;;;;11.48;3.22;;;;;;;;;;5076589;28;20055;-67
2021/06/15 03:57:34;;;;;;;8.02;2.80;;;;;;;;;;5076290;28;20029;-68
2021/06/15 04:00:03;;;;;;;10.88;3.35;;;;;;;;;;5076385;28;20032;-68
2021/06/15 04:02:33;;;;;;;15.98;2.85;;;;;;;;;;5076653;28;20089;-71
2021/06/15 04:04:59;;;;;;;8.52;3.22;;;;;;;;;;5076818;28;20017;-68
2021/06/15 04:07:25;;;;;;;7.72;3.42;;;;;;;;;;5076182;28;20024;-68
2021/06/15 04:09:52;;;;;;;8.20;2.95;;;;;;;;;;5075846;28;20024;-68
2021/06/15 04:12:20;;;;;;;7.45;2.80;;;;;;;;;;5074371;28;20035;-68
2021/06/15 04:14:46;;;;;;;10.32;2.97;;;;;;;;;;5075080;28;20369;-68
2021/06/15 04:17:19;;;;;;;5.93;3.20;;;;;;;;;;5074649;28;20020;-68
2021/06/15 04:19:44;;;;;;;;;;;;;;;;;;5074470;28;20540;-67
2021/06/15 04:22:13;;;;;;;10.57;3.13;;;;;;;;;;5074518;28;19991;-67
2021/06/15 04:24:40;;;;;;;7.45;3.92;;;;;;;;;;5074873;28;20025;-72
2021/06/15 04:27:07;;;;;;;6.72;3.45;;;;;;;;;;5075582;28;20028;-68
2021/06/15 04:29:33;;;;;;;10.38;3.30;;;;;;;;;;5075616;28;20021;-71
2021/06/15 04:32:04;;;;;;;12.43;3.72;;;;;;;;;;5076113;28;20059;-67
2021/06/15 04:34:32;;;;;;;9.20;3.20;;;;;;;;;;5075948;28;20027;-70
2021/06/15 04:36:59;;;;;;;14.02;3.38;;;;;;;;;;5075739;28;20025;-71
2021/06/15 04:39:29;;;;;;;14.10;3.70;;;;;;;;;;5074497;28;20060;-71
2021/06/15 04:42:05;;;;;;;6.70;2.40;;;;;;;;;;5075489;28;20024;-67
2021/06/15 04:44:51;;;;;;;10.43;3.08;;;;;;;;;;5073755;28;20413;-71
2021/06/15 04:47:31;;;;;;;19.58;3.85;;;;;;;;;;5075527;28;20134;-68
2021/06/15 04:50:10;;;;;;;12.02;3.10;;;;;;;;;;5075637;28;20518;-68
2021/06/15 04:52:36;;;;;;;9.93;3.08;;;;;;;;;;5075495;28;20023;-68
2021/06/15 04:55:05;;;;;;;6.97;2.97;;;;;;;;;;5075612;28;20444;-71
2021/06/15 04:57:36;;;;;;;7.28;3.03;;;;;;;;;;5075534;28;20087;-67
2021/06/15 05:00:02;;;;;;;6.38;3.17;;;;;;;;;;5075125;28;20025;-67
2021/06/15 05:02:28;;;;;;;10.27;3.33;;;;;;;;;;5075254;28;20021;-67
2021/06/15 05:04:55;;;;;;;11.02;2.97;;;;;;;;;;5075198;28;20469;-67
2021/06/15 05:07:22;;;;;;;7.07;3.05;;;;;;;;;;5075633;28;20358;-71
2021/06/15 05:09:53;;;;;;;7.07;2.60;;;;;;;;;;5075302;28;20082;-68
2021/06/15 05:12:20;;;;;;;8.52;3.25;;;;;;;;;;5075386;28;20476;-67
2021/06/15 05:14:46;;;;;;;15.38;4.38;;;;;;;;;;5075238;28;20040;-67
2021/06/15 05:17:12;;;;;;;10.18;3.25;;;;;;;;;;5074945;28;20059;-68
2021/06/15 05:19:39;;;;;;;8.38;3.05;;;;;;;;;;5073562;28;20028;-68
2021/06/15 05:22:10;;;;;;;10.25;2.85;;;;;;;;;;5073368;28;20025;-67
2021/06/15 05:24:42;;;;;;;11.98;3.35;;;;;;;;;;5075220;28;20087;-68
2021/06/15 05:27:08;;;;;;;;;;;;;;;;;;5075299;28;20377;-72
2021/06/15 05:29:34;;;;;;;12.60;2.90;;;;;;;;;;5073627;28;19904;-68
2021/06/15 05:32:01;;;;;;;10.77;3.22;;;;;;;;;;5074612;28;20028;-71
2021/06/15 05:34:27;;;;;;;8.38;2.63;;;;;;;;;;5073261;28;20776;-68
2021/06/15 05:36:53;;;;;;;10.68;3.20;;;;;;;;;;5073770;28;20024;-67
2021/06/15 05:39:19;;;;;;;6.68;2.85;;;;;;;;;;5073070;28;20040;-68
2021/06/15 05:41:45;;;;;;;5.30;2.63;;;;;;;;;;5074100;28;20066;-70
2021/06/15 05:44:11;;;;;;;8.30;3.08;;;;;;;;;;5074630;28;20033;-67
2021/06/15 05:46:37;;;;;;;6.28;2.55;;;;;;;;;;5074426;28;20024;-68
2021/06/15 05:49:03;;;;;;;7.90;2.67;;;;;;;;;;5074498;28;20040;-70
2021/06/15 05:51:29;;;;;;;7.47;3.00;;;;;;;;;;5074137;28;20020;-67
2021/06/15 05:53:55;;;;;;;6.18;2.80;;;;;;;;;;5074339;28;20024;-68
2021/06/15 05:56:21;;;;;;;5.95;2.60;;;;;;;;;;5074286;28;20036;-68
2021/06/15 05:58:47;;;;;;;8.85;2.80;;;;;;;;;;5074364;28;20064;-67
2021/06/15 06:01:13;;;;;;;7.90;2.80;;;;;;;;;;5072707;28;20052;-67
2021/06/15 06:03:44;;;;;;;18.48;3.00;;;;;;;;;;5072760;28;20024;-68
2021/06/15 06:08:55;;;;;;;8.43;2.80;;;22.30;51.90;;;;;;5073981;28;20074;-68
2021/06/15 06:11:20;;;;;;;5.88;2.50;;;22.20;52.40;;;;;;5073825;28;20107;-72
2021/06/15 06:13:49;;;;;;;5.40;2.63;;;22.20;53.50;;;;;;5073314;28;20029;-69
2021/06/15 06:16:15;;;;;;;7.43;2.50;;;22.20;53.90;;;;;;5073728;28;20056;-69
2021/06/15 06:18:41;;;;;;;7.32;2.80;;;22.30;53.00;;;;;;5073967;28;20039;-68
2021/06/15 06:21:09;;;;;;;6.85;2.67;;;22.20;52.70;;;;;;5073402;28;20024;-73
2021/06/15 06:23:35;;;;;;;11.02;2.40;;;22.30;52.70;;;;;;5072554;28;20039;-73
2021/06/15 06:26:01;;;;;;;14.30;3.35;;;22.30;52.20;;;;;;5073342;28;20029;-74
2021/06/15 06:28:26;;;;;;;9.00;2.95;;;22.30;51.80;;;;;;5073516;28;20028;-70
2021/06/15 06:30:52;;;;;;;4.65;2.92;;;22.30;52.10;;;;;;5072742;28;20024;-67
2021/06/15 06:33:18;;;;;;;7.15;3.35;;;22.30;53.20;;;;;;5071778;28;20021;-73
2021/06/15 06:35:43;;;;;;;6.07;3.05;;;22.30;54.30;;;;;;5072263;28;20025;-68
2021/06/15 06:38:09;;;;;;;3.72;2.53;;;22.30;53.10;;;;;;5071605;28;20251;-68
2021/06/15 06:40:35;;;;;;;6.25;2.92;;;22.40;53.00;;;;;;5072344;28;20025;-68
2021/06/15 06:43:01;;;;;;;8.50;2.63;;;22.40;53.00;;;;;;5072453;28;20027;-73
2021/06/15 06:45:26;;;;;;;7.20;2.72;;;22.40;53.20;;;;;;5070626;28;20035;-68
2021/06/15 06:47:52;;;;;;;6.38;2.60;;;22.40;53.40;;;;;;5073094;28;20020;-75
2021/06/15 06:50:18;;;;;;;9.25;3.03;;;22.40;53.70;;;;;;5073088;28;20021;-75
2021/06/15 06:52:44;;;;;;;6.93;2.67;;;22.40;52.80;;;;;;5072672;28;20023;-75
2021/06/15 06:55:10;;;;;;;6.05;2.95;;;22.40;52.40;;;;;;5072618;28;20493;-76
2021/06/15 06:57:36;;;;;;;5.60;2.55;;;22.50;52.80;;;;;;5072687;28;20047;-74
2021/06/15 07:00:03;;;;;;;4.20;2.53;;;22.50;52.30;;;;;;5073104;28;20021;-69
2021/06/15 07:02:29;;;;;;;12.50;3.10;;;22.50;52.00;;;;;;5073028;28;20025;-67
2021/06/15 07:04:55;;;;;;;8.63;2.80;;;22.50;51.30;;;;;;5070061;28;20492;-75
2021/06/15 07:07:21;;;;;;;7.63;3.00;;;22.50;51.50;;;;;;5073278;28;20020;-75
2021/06/15 07:09:46;;;;;;;7.45;3.13;;;22.50;52.00;;;;;;5073000;28;20115;-72
2021/06/15 07:12:14;;;;;;;6.00;2.72;;;22.50;51.70;;;;;;5072104;28;20078;-71
2021/06/15 07:14:40;;;;;;;8.38;3.40;;;22.50;52.00;;;;;;5071580;28;20025;-73
2021/06/15 07:17:05;;;;;;;7.32;3.20;;;22.50;52.70;;;;;;5072464;28;20027;-74
2021/06/15 07:19:31;;;;;;;7.55;3.08;;;22.60;53.90;;;;;;5072859;28;20036;-69
2021/06/15 07:21:57;;;;;;;5.93;3.25;;;22.60;53.50;;;;;;5072287;28;20027;-74
2021/06/15 07:24:23;;;;;;;6.93;3.25;;;22.60;52.40;;;;;;5072193;28;20025;-74
2021/06/15 07:26:48;;;;;;;8.80;2.60;;;22.60;51.90;;;;;;5072564;28;20693;-73
2021/06/15 07:29:14;;;;;;;7.75;3.10;;;22.60;51.70;;;;;;5071887;28;20024;-75
2021/06/15 07:31:40;;;;;;;5.53;3.10;;;22.70;51.80;;;;;;5072198;28;20481;-68
2021/06/15 07:34:06;;;;;;;8.63;2.95;;;22.70;52.10;;;;;;5072061;28;20055;-67
2021/06/15 07:36:32;;;;;;;11.52;3.17;;;;;;;;;;5072207;28;20489;-76
2021/06/15 07:38:58;;;;;;;8.68;3.60;;;;;;;;;;5071820;28;20060;-68
2021/06/15 07:41:24;;;;;;;9.00;3.55;;;;;;;;;;5072224;28;20158;-75
2021/06/15 07:43:50;;;;;;;9.13;3.35;;;;;;;;;;5072336;28;20100;-76
2021/06/15 07:46:16;;;;;;;7.28;3.28;;;22.70;52.30;;;;;;5072795;28;20052;-67
2021/06/15 07:48:42;;;;;;;7.57;3.30;;;;;;;;;;5072174;28;20484;-67
2021/06/15 07:51:08;;;;;;;6.95;3.03;;;;;;;;;;5071636;28;20029;-68
2021/06/15 07:53:34;;;;;;;8.93;3.35;;;;;;;;;;5071954;28;20021;-68
2021/06/15 07:56:00;;;;;;;8.98;3.95;;;;;;;;;;5071998;28;20048;-73
2021/06/15 07:58:26;;;;;;;9.65;4.18;;;;;;;;;;5072090;28;20060;-68
2021/06/15 08:00:52;;;;;;;6.78;3.28;;;;;;;;;;5072696;28;20020;-67
2021/06/15 08:03:18;;;;;;;8.63;3.53;;;;;;;;;;5072613;28;20475;-77
2021/06/15 08:05:44;;;;;;;10.65;3.30;;;;;;;;;;5072672;28;20025;-72
2021/06/15 08:08:11;;;;;;;7.80;3.92;;;;;;;;;;5072463;28;20443;-67
2021/06/15 08:10:37;;;;;;;14.45;3.10;;;;;;;;;;5071852;28;20028;-69
2021/06/15 08:13:03;;;;;;;13.07;3.38;;;;;;;;;;5072614;28;20032;-67
2021/06/15 08:15:29;;;;;;;6.22;2.92;;;;;;;;;;5072717;28;20090;-75
2021/06/15 08:17:55;;;;;;;6.93;2.78;;;;;;;;;;5072489;28;20473;-68
2021/06/15 08:20:21;;;;;;;7.38;2.95;;;;;;;;;;5072104;28;20025;-68
2021/06/15 08:22:47;;;;;;;7.20;2.97;;;;;;;;;;5071851;28;20017;-67
2021/06/15 08:25:13;;;;;;;11.88;4.15;;;;;;;;;;5075988;28;20036;-68
2021/06/15 08:27:39;;;;;;;11.85;4.40;;;;;;;;;;5076077;28;20157;-67
2021/06/15 08:30:06;;;;;;;11.27;4.80;;;;;;;;;;5076129;28;20028;-67
2021/06/15 08:32:32;;;;;;;11.20;4.90;;;;;;;;;;5075529;28;20025;-67
2021/06/15 08:34:58;;;;;;;12.32;4.20;;;;;;;;;;5075970;28;20100;-68
2021/06/15 08:37:25;;;;;;;12.48;5.07;;;;;;;;;;5075447;28;20024;-70
2021/06/15 08:39:51;;;;;;;16.70;5.68;;;;;;;;;;5075669;28;20444;-70
2021/06/15 08:42:17;;;;;;;7.47;3.95;;;;;;;;;;5075986;28;20035;-70
2021/06/15 08:44:43;;;;;;;9.10;4.55;;;;;;;;;;5075764;28;20029;-70
2021/06/15 08:47:09;;;;;;;10.05;4.03;;;;;;;;;;5075852;28;20473;-71
2021/06/15 08:49:36;;;;;;;8.73;4.35;;;;;;;;;;5075602;28;20024;-70
2021/06/15 08:52:02;;;;;;;11.60;3.80;;;;;;;;;;5075668;28;20031;-70
2021/06/15 08:54:28;;;;;;;11.90;3.85;;;;;;;;;;5075905;28;20047;-71
2021/06/15 08:56:54;;;;;;;10.38;3.65;;;;;;;;;;5075817;28;20067;-70
2021/06/15 08:59:21;;;;;;;6.72;2.92;;;;;;;;;;5075503;28;20036;-70
2021/06/15 09:01:52;;;;;;;7.80;3.22;;;;;;;;;;5075471;28;20082;-70
2021/06/15 09:04:18;;;;;;;13.23;3.65;;;;;;;;;;5075791;28;20028;-70
2021/06/15 09:06:45;;;;;;;9.20;3.38;;;;;;;;;;5075581;28;20032;-72
2021/06/15 09:09:11;;;;;;;7.90;3.08;;;;;;;;;;5074197;28;20027;-69
2021/06/15 09:11:57;;;;;;;9.73;3.25;;;;;;;;;;5075505;28;20035;-69
2021/06/15 09:14:38;;;;;;;10.25;3.00;;;;;;;;;;5075205;28;20469;-69
2021/06/15 09:17:04;;;;;;;9.05;3.10;;;;;;;;;;5075053;28;20024;-70
2021/06/15 09:19:35;;;;;;;9.38;3.17;;;;;;;;;;5074920;28;20045;-76
2021/06/15 09:22:02;;;;;;;6.43;3.17;;;;;;;;;;5073816;28;20028;-69
2021/06/15 09:24:28;;;;;;;8.32;3.30;;;;;;;;;;5074776;28;20028;-70
2021/06/15 09:27:08;;;;;;;8.25;3.33;;;;;;;;;;5075102;28;20025;-70
2021/06/15 09:29:38;;;;;;;6.78;3.10;;;;;;;;;;5074914;28;20467;-70
2021/06/15 09:32:05;;;;;;;5.18;2.90;;;;;;;;;;5075149;28;20020;-69
2021/06/15 09:34:31;;;;;;;10.70;3.10;;;;;;;;;;5074564;28;20032;-70
2021/06/15 09:36:57;;;;;;;10.45;3.28;;;;;;;;;;5076679;28;20074;-70
2021/06/15 09:39:23;;;;;;;7.22;2.90;;;;;;;;;;5075189;28;20477;-70
2021/06/15 09:41:50;;;;;;;12.13;3.45;;;;;;;;;;5074988;28;20020;-70
2021/06/15 09:44:16;;;;;;;9.52;3.40;;;;;;;;;;5075040;28;20032;-72
2021/06/15 09:46:45;;;;;;;7.55;3.10;;;;;;;;;;5074768;28;20024;-70
2021/06/15 09:49:13;;;;;;;8.10;3.15;;;;;;;;;;5074790;28;20423;-70
2021/06/15 09:51:40;;;;;;;11.80;3.50;;;;;;;;;;5074500;28;20380;-70
2021/06/15 09:54:06;;;;;;;10.50;3.60;;;;;;;;;;5074757;28;20024;-69
2021/06/15 09:56:32;;;;;;;5.25;2.90;;;;;;;;;;5074916;28;20135;-70
2021/06/15 09:58:59;;;;;;;7.57;3.03;;;;;;;;;;5074238;28;20481;-69
2021/06/15 10:01:27;;;;;;;10.38;3.35;;;;;;;;;;5074486;28;20035;-69
2021/06/15 10:04:12;;;;;;;9.32;3.03;;;;;;;;;;5074265;28;20028;-70
2021/06/15 10:06:39;;;;;;;13.85;3.50;;;;;;;;;;5074174;28;20078;-70
2021/06/15 10:09:05;;;;;;;10.85;3.30;;;;;;;;;;5073972;28;20038;-74
2021/06/15 10:11:32;;;;;;;9.10;3.60;;;;;;;;;;5074073;28;20039;-71
2021/06/15 10:13:58;;;;;;;12.60;3.10;;;;;;;;;;5074156;28;20024;-70
2021/06/15 10:16:24;;;;;;;7.55;3.15;;;;;;;;;;5074019;28;20032;-69
2021/06/15 10:18:50;;;;;;;9.60;3.58;;;;;;;;;;5073705;28;20806;-70
2021/06/15 10:21:17;;;;;;;12.20;3.60;;;;;;;;;;5074062;28;20024;-70
2021/06/15 10:23:43;;;;;;;6.60;3.08;;;;;;;;;;5073881;28;20024;-70
2021/06/15 10:26:10;;;;;;;6.07;3.17;;;;;;;;;;5073771;28;20107;-70
2021/06/15 10:28:36;;;;;;;6.38;3.35;;;;;;;;;;5073782;28;20039;-70
2021/06/15 10:31:02;;;;;;;5.40;2.95;;;;;;;;;;5073645;28;20021;-70
2021/06/15 10:33:41;;;;;;;5.88;3.17;;;;;;;;;;5073852;28;20396;-71
2021/06/15 10:36:07;;;;;;;10.13;3.13;;;;;;;;;;5073647;28;20028;-71
2021/06/15 10:38:35;;;;;;;7.50;3.65;;;;;;;;;;5074182;28;20044;-70
2021/06/15 10:41:02;;;;;;;9.90;3.20;;;;;;;;;;5073554;28;20075;-70
2021/06/15 10:43:31;;;;;;;11.50;3.55;;;;;;;;;;5073121;28;20111;-71
2021/06/15 10:46:00;;;;;;;6.60;3.72;;;;;;;;;;5073648;28;20036;-70
2021/06/15 10:48:28;;;;;;;8.43;3.10;;;;;;;;;;5073694;28;20384;-70
2021/06/15 10:50:55;;;;;;;7.82;3.38;;;;;;;;;;5073401;28;20016;-69
2021/06/15 10:53:33;;;;;;;10.32;3.70;;;;;;;;;;5073671;28;20020;-70
2021/06/15 10:55:59;;;;;;;9.55;3.20;;;;;;;;;;5073101;28;20105;-70
2021/06/15 10:58:37;;;;;;;6.35;3.40;;;;;;;;;;5073396;28;20417;-70
2021/06/15 11:01:32;;;;;;;7.40;3.50;;;;;;;;;;5073097;28;20536;-69
2021/06/15 11:03:59;;;;;;;7.97;3.55;;;;;;;;;;5069805;28;20040;-70
2021/06/15 11:06:28;;;;;;;12.95;3.45;;;;;;;;;;5073344;28;20020;-70
2021/06/15 11:09:09;;;;;;;8.93;3.08;;;;;;;;;;5073540;28;20028;-70
2021/06/15 11:11:36;;;;;;;6.80;3.72;;;;;;;;;;5073267;28;20031;-70
2021/06/15 11:14:06;;;;;;;9.90;3.70;;;;;;;;;;5072959;28;20099;-76
2021/06/15 11:16:44;;;;;;;7.95;3.90;;;;;;;;;;5071509;28;20050;-78
2021/06/15 11:19:10;;;;;;;6.05;3.25;;;;;;;;;;5070805;28;20032;-75
2021/06/15 11:21:48;;;;;;;8.52;3.30;;;;;;;;;;5073069;28;20020;-72
2021/06/15 11:24:21;;;;;;;11.57;3.70;;;;;;;;;;5073162;28;20040;-70
2021/06/15 11:26:51;;;;;;;10.82;3.70;;;;;;;;;;5073050;28;20021;-68
2021/06/15 11:29:34;;;;;;;8.63;3.70;;;;;;;;;;5072765;28;20103;-70
2021/06/15 11:32:15;;;;;;;12.60;3.63;;;;;;;;;;5071769;28;20055;-70
2021/06/15 11:35:02;;;;;;;11.73;3.45;;;;;;;;;;5071334;28;20025;-70
2021/06/15 11:37:38;;;;;;;5.50;3.13;;;;;;;;;;5068406;28;20040;-72
2021/06/15 11:40:22;;;;;;;8.80;3.60;;;;;;;;;;5071697;28;20029;-69
2021/06/15 11:42:54;;;;;;;10.73;3.75;;;;;;;;;;5072999;28;20036;-70
2021/06/15 11:45:20;;;;;;;;;;;;;;;;;;5073415;28;20035;-70
2021/06/15 11:47:56;;;;;;;7.75;3.70;;;;;;;;;;5072768;28;20426;-70
2021/06/15 11:50:29;;;;;;;13.73;4.03;;;;;;;;;;5072642;28;20024;-69
2021/06/15 11:52:57;;;;;;;15.32;3.92;;;;;;;;;;5073026;28;20021;-69
2021/06/15 11:55:34;;;;;;;10.68;4.05;;;;;;;;;;5072319;28;20550;-70
2021/06/15 11:58:01;;;;;;;5.90;3.30;;;;;;;;;;5073347;28;20038;-71
2021/06/15 12:00:29;;;;;;;9.50;4.07;;;;;;;;;;5076706;28;20036;-71
2021/06/15 12:03:08;;;;;;;11.57;3.97;;;;;;;;;;5076850;28;20843;-71
2021/06/15 12:05:35;;;;;;;9.18;3.60;;;;;;;;;;5076543;28;20446;-70
2021/06/15 12:08:01;;;;;;;10.77;4.13;;;;;;;;;;5076942;28;20074;-70
2021/06/15 12:10:27;;;;;;;9.07;4.10;;;;;;;;;;5076447;28;20048;-69
2021/06/15 12:13:12;;;;;;;10.88;3.90;;;;;;;;;;5076370;28;20028;-70
2021/06/15 12:15:48;;;;;;;8.77;3.72;;;;;;;;;;5076248;28;20025;-70
2021/06/15 12:18:15;;;;;;;8.93;3.83;;;;;;;;;;5076202;28;20043;-69
2021/06/15 12:20:42;;;;;;;7.35;3.75;;;;;;;;;;5075231;28;20427;-69
2021/06/15 12:23:24;;;;;;;10.18;3.92;;;;;;;;;;5076364;28;20025;-70
2021/06/15 12:25:50;;;;;;;;;;;;;;;;;;5076764;28;20020;-69
2021/06/15 12:28:18;;;;;;;10.32;4.15;;;;;;;;;;5076069;28;19904;-70
2021/06/15 12:30:44;;;;;;;7.95;3.78;;;;;;;;;;5075904;28;20036;-70
2021/06/15 12:33:13;;;;;;;12.52;4.30;;;;;;;;;;5076159;28;20032;-69
2021/06/15 12:35:40;;;;;;;10.45;3.78;;;;;;;;;;5076373;28;20473;-70
2021/06/15 12:38:24;;;;;;;9.35;4.20;;;;;;;;;;5076136;28;20024;-71
2021/06/15 12:40:50;;;;;;;9.57;4.30;;;;;;;;;;5075818;28;20025;-71
2021/06/15 12:43:16;;;;;;;11.23;4.47;;;;;;;;;;5075780;28;20025;-71
2021/06/15 12:45:42;;;;;;;14.75;3.75;;;;;;;;;;5075730;28;20029;-71
2021/06/15 12:48:21;;;;;;;12.43;4.07;;;;;;;;;;5076129;28;20384;-71
2021/06/15 12:50:47;;;;;;;7.13;3.40;;;;;;;;;;5075894;28;20030;-71
2021/06/15 12:53:13;;;;;;;10.95;3.55;;;;;;;;;;5075605;28;20025;-71
2021/06/15 12:55:43;;;;;;;11.50;3.67;;;;;;;;;;5075467;28;20044;-71
2021/06/15 12:58:11;;;;;;;7.28;3.85;;;;;;;;;;5075618;28;20032;-71
2021/06/15 13:00:41;;;;;;;9.90;4.15;;;;;;;;;;5075857;28;20015;-70
2021/06/15 13:03:13;;;;;;;8.80;4.00;;;;;;;;;;5075697;28;20112;-70
2021/06/15 13:05:40;;;;;;;9.50;4.95;;;;;;;;;;5075718;28;20044;-70
2021/06/15 13:08:06;;;;;;;15.85;5.55;;;;;;;;;;5075421;28;20060;-70
2021/06/15 13:10:32;;;;;;;9.75;4.03;;;;;;;;;;5073973;28;20033;-70
2021/06/15 13:13:02;;;;;;;7.97;3.83;;;;;;;;;;5075634;28;20028;-71
2021/06/15 13:15:30;;;;;;;10.98;4.43;;;;;;;;;;5072938;28;20056;-71
2021/06/15 13:17:58;;;;;;;10.18;4.03;;;;;;;;;;5072559;28;20032;-70
2021/06/15 13:20:25;;;;;;;13.60;4.25;;;;;;;;;;5071888;28;20036;-70
2021/06/15 13:22:52;;;;;;;10.63;4.25;;;;;;;;;;5072387;28;20389;-70
2021/06/15 13:25:23;;;;;;;8.77;5.65;;;;;;;;;;5071393;28;20365;-70
2021/06/15 13:27:54;;;;;;;12.10;5.30;;;;;;;;;;5075318;28;20040;-70
2021/06/15 13:30:20;;;;;;;10.65;5.28;;;;;;;;;;5075012;28;20024;-70
2021/06/15 13:32:49;;;;;;;9.90;4.90;;;;;;;;;;5074430;28;20165;-71
2021/06/15 13:35:21;;;;;;;7.75;4.38;;;;;;;;;;5074643;28;20457;-69
2021/06/15 13:37:55;;;;;;;7.07;4.05;;;;;;;;;;5074658;28;20495;-70
2021/06/15 13:40:30;;;;;;;12.07;4.90;;;;;;;;;;5074755;28;20025;-70
2021/06/15 13:42:57;;;;;;;9.70;4.50;;;;;;;;;;5074340;28;20394;-70
2021/06/15 13:45:35;;;;;;;19.50;5.35;;;;;;;;;;5074593;28;20027;-70
2021/06/15 13:48:01;;;;;;;7.38;4.65;;;;;;;;;;5074295;28;20381;-71
2021/06/15 13:50:27;;;;;;;11.35;4.60;;;;;;;;;;5074239;28;20031;-70
2021/06/15 13:52:53;;;;;;;15.02;4.90;;;;;;;;;;5074786;28;20410;-70
2021/06/15 13:55:20;;;;;;;7.78;4.65;;;;;;;;;;5074442;28;20127;-70
2021/06/15 13:57:46;;;;;;;8.60;4.28;;;;;;;;;;5074546;28;20210;-70
2021/06/15 14:00:17;;;;;;;13.55;4.90;;;;;;;;;;5074530;28;20028;-70
2021/06/15 14:02:43;;;;;;;10.97;4.10;;;;;;;;;;5074709;28;20103;-70
2021/06/15 14:05:10;;;;;;;9.65;5.30;;;;;;;;;;5074698;28;20032;-70
2021/06/15 14:07:36;;;;;;;13.20;5.20;;;;;;;;;;5074463;28;20020;-67
2021/06/15 14:10:02;;;;;;;13.60;4.82;;;;;;;;;;5074228;28;20031;-70
2021/06/15 14:12:29;;;;;;;10.55;5.20;;;;;;;;;;5074316;28;20025;-70
2021/06/15 14:14:55;;;;;;;16.45;5.30;;;;;;;;;;5074131;28;20028;-71
2021/06/15 14:17:21;;;;;;;11.95;5.72;;;;;;;;;;5074199;28;20028;-72
2021/06/15 14:19:47;;;;;;;13.73;5.28;;;;;;;;;;5074104;28;20020;-70
2021/06/15 14:22:13;;;;;;;22.52;5.03;;;;;;;;;;5073647;28;20384;-72
2021/06/15 14:24:39;;;;;;;10.32;5.00;;;;;;;;;;5074058;28;20104;-70
2021/06/15 14:27:05;;;;;;;13.80;5.20;;;;;;;;;;5073942;28;20032;-70
2021/06/15 14:29:31;;;;;;;11.60;4.70;;;;;;;;;;5073864;28;20385;-71
2021/06/15 14:31:58;;;;;;;9.32;4.60;;;;;;;;;;5073587;28;20029;-71
2021/06/15 14:34:24;;;;;;;12.85;5.10;;;;;;;;;;5073883;28;20024;-72
2021/06/15 14:36:50;;;;;;;9.40;4.60;;;;;;;;;;5073570;28;20029;-71